Nearby METAR Reports

 

KARR - Chicago/Aurora, Illinois, USA
Distance from station: S 8mi, 13km
Updated: Sat, Oct-20-2018 7:52am CDT
Clear
Clear
 Wind from W
Wind: W 12 mph , 19 km/h
Temperature: 43°F , 6°C
Wind Chill: 37°F , 3°C
Dew Point: 37°F , 3°C
Humidity: 81%
Barometer: 1011.5 hPa
Clouds: Clear
Visibility: 10 miles , 16 km
2018/10/20 12:52 KARR 201252Z AUTO 26010KT 10SM CLR 06/03 A2987 RMK AO2 SLP118 T00610028
KDKB - De Kalb, Illinois, USA
Distance from station: WNW 12mi, 19km
Updated: Sat, Oct-20-2018 7:55am CDT
Clear
Clear
 Wind from W
Wind: W 15 mph , 24 km/h, Gust: 21 mph , 33 km/h
Temperature: 41°F , 5°C
Wind Chill: 33°F , 1°C
Dew Point: 37°F , 3°C
Humidity: 87%
Barometer: 1011.9 hPa
Clouds: Clear
Visibility: 10 miles , 16 km
2018/10/20 12:55 KDKB 201255Z AUTO 26013G18KT 10SM CLR 05/03 A2988 RMK AO2 T00530025
 
KDPA - Chicago/Dupage, Illinois, USA
Distance from station: E 12mi, 19km
Updated: Sat, Oct-20-2018 7:52am CDT
Clear
Clear
 Wind from W
Wind: W 12 mph , 19 km/h
Temperature: 43°F , 6°C
Wind Chill: 37°F , 3°C
Dew Point: 36°F , 2°C
Humidity: 76%
Barometer: 1011.2 hPa
Clouds: Clear
Visibility: 10 miles , 16 km
2018/10/20 12:52 KDPA 201252Z 26010KT 10SM CLR 06/02 A2986 RMK AO2 SLP113 T00610017
KLOT - Romeoville/Chi, Illinois, USA
Distance from station: SE 28mi, 45km
Updated: Sat, Oct-20-2018 7:55am CDT
Clear
Clear
 Wind from W
Wind: W 12 mph , 19 km/h
Temperature: 41°F , 5°C
Wind Chill: 34°F , 1°C
Dew Point: 37°F , 3°C
Humidity: 87%
Barometer: 1011.9 hPa
Clouds: Clear
Visibility: 10 miles , 16 km
2018/10/20 12:55 KLOT 201255Z AUTO 26010KT 10SM CLR 05/03 A2988 RMK AO2 T00540027
 
KORD - Chicago O'hare, Illinois, USA
Distance from station: ENE 29mi, 46km
Updated: Sat, Oct-20-2018 7:51am CDT
Clear
Clear
 Wind from W
Wind: W 10 mph , 17 km/h
Temperature: 46°F , 8°C
Wind Chill: 41°F , 5°C
Dew Point: 36°F , 2°C
Humidity: 66%
Barometer: 1010.5 hPa
Clouds: Clear
Visibility: 10 miles , 16 km
2018/10/20 12:51 KORD 201251Z 26009KT 10SM CLR 08/02 A2984 RMK AO2 SLP107 T00780022
KJOT - Joliet, Illinois, USA
Distance from station: SSE 30mi, 48km
Updated: Sat, Oct-20-2018 7:55am CDT
Clear
Clear
 Wind from WSW
Wind: WSW 7 mph , 11 km/h
Temperature: 43°F , 6°C
Wind Chill: 39°F , 4°C
Dew Point: 37°F , 3°C
Humidity: 81%
Barometer: 1011.9 hPa
Clouds: Clear
Visibility: 10 miles , 16 km
2018/10/20 12:55 KJOT 201255Z AUTO 25006KT 10SM CLR 06/03 A2988 RMK AO2 T00620033
 
KRPJ - Rochelle/Koritz, Illinois, USA
Distance from station: W 31mi, 50km
Updated: Sat, Oct-20-2018 7:55am CDT
Clear
Clear
 Wind from W
Wind: W 9 mph , 15 km/h
Temperature: 39°F , 4°C
Wind Chill: 33°F , 1°C
Dew Point: 37°F , 3°C
Humidity: 93%
Barometer: 1012.5 hPa
Clouds: Clear
Visibility: 10 miles , 16 km
2018/10/20 12:55 KRPJ 201255Z AUTO 26008KT 10SM CLR 04/03 A2990 RMK AO2 T00440026
KC09 - Morris-Washburn, Illinois, USA
Distance from station: S 31mi, 51km
Updated: Sat, Oct-20-2018 7:55am CDT
Clear
Clear
 Wind from W
Wind: W 14 mph , 22 km/h
Temperature: 43°F , 6°C
Wind Chill: 36°F , 2°C
Dew Point: 37°F , 3°C
Humidity: 81%
Barometer: 1012.5 hPa
Clouds: Clear
Visibility: 10 miles , 16 km
2018/10/20 12:55 KC09 201255Z AUTO 27012KT 10SM CLR 06/03 A2990 RMK AO2 T00580028
 
KPWK - Palwaukee, Illinois, USA
Distance from station: ENE 34mi, 54km
Updated: Sat, Oct-20-2018 7:52am CDT
Clear
Clear
 Wind from W
Wind: W 8 mph , 13 km/h
Temperature: 46°F , 8°C
Wind Chill: 42°F , 6°C
Dew Point: 36°F , 2°C
Humidity: 66%
Barometer: 1010.5 hPa
Clouds: Clear
Visibility: 10 miles , 16 km
2018/10/20 12:52 KPWK 201252Z 26007KT 10SM CLR 08/02 A2984 RMK AO2 SLP106 T00780017
KMDW - Chicago, Illinois, USA
Distance from station: E 38mi, 62km
Updated: Sat, Oct-20-2018 7:53am CDT
Clear
Clear
 Wind from W
Wind: W 14 mph , 22 km/h
Temperature: 46°F , 8°C
Wind Chill: 40°F , 4°C
Dew Point: 36°F , 2°C
Humidity: 66%
Barometer: 1011.2 hPa
Clouds: Clear
Visibility: 10 miles , 16 km
2018/10/20 12:53 KMDW 201253Z 26012KT 10SM CLR 08/02 A2986 RMK AO2 SLP112 T00780017
 
KRFD - Rockford, Illinois, USA
Distance from station: NW 39mi, 62km
Updated: Sat, Oct-20-2018 7:54am CDT
Clear
Clear
 Wind from W
Wind: W 14 mph , 22 km/h
Temperature: 43°F , 6°C
Wind Chill: 36°F , 2°C
Dew Point: 36°F , 2°C
Humidity: 76%
Barometer: 1011.9 hPa
Clouds: Clear
Visibility: 10 miles , 16 km
2018/10/20 12:54 KRFD 201254Z 26012KT 10SM CLR 06/02 A2988 RMK AO2 SLP120 T00560017